PBD461 UUWW-UWKS
Flight info
| Callsign | PBD461 |
|---|---|
| Flight time | 1h 7m |
| Altitude | 37000 |
| Route | KOGOM3B KOGOM L94 EKPIR M864 INKEB L94 NAMER NAMER1A |
| Aircraft | B738/M-SDE2E3FGHIRWXY/LB1 |
Departure
| Time | 2026-04-16 02:37 |
|---|---|
| Airport | Vnukovo International Airport (UUWW) |
Arrival
| Time | 2026-04-16 03:44 |
|---|---|
| Airport | Cheboksary Airport (UWKS) |
| Time | Latitude | Longitude | Altitude | Speed | Heading |
|---|---|---|---|---|---|
| 2026-04-16 02:10 | 55.60272 | 37.27978 | 694 ft | 0 kts | 92° |
| 2026-04-16 02:22 | 55.60273 | 37.27977 | 694 ft | 2 kts | 92° |
| 2026-04-16 02:22 | 55.60275 | 37.27934 | 690 ft | 4 kts | 102° |
| 2026-04-16 02:22 | 55.60283 | 37.27889 | 686 ft | 4 kts | 121° |
| 2026-04-16 02:23 | 55.60300 | 37.27857 | 687 ft | 4 kts | 158° |
| 2026-04-16 02:23 | 55.60315 | 37.27851 | 688 ft | 0 kts | 186° |
| 2026-04-16 02:25 | 55.60310 | 37.27851 | 687 ft | 2 kts | 186° |
| 2026-04-16 02:26 | 55.60240 | 37.27838 | 688 ft | 9 kts | 181° |
| 2026-04-16 02:26 | 55.60169 | 37.27869 | 688 ft | 12 kts | 153° |
| 2026-04-16 02:26 | 55.60105 | 37.27968 | 691 ft | 12 kts | 126° |
| 2026-04-16 02:27 | 55.60075 | 37.28106 | 694 ft | 12 kts | 97° |
| 2026-04-16 02:27 | 55.60078 | 37.28193 | 694 ft | 6 kts | 83° |
| 2026-04-16 02:27 | 55.60083 | 37.28267 | 694 ft | 6 kts | 83° |
| 2026-04-16 02:27 | 55.60087 | 37.28339 | 691 ft | 6 kts | 83° |
| 2026-04-16 02:28 | 55.60098 | 37.28423 | 687 ft | 9 kts | 65° |
| 2026-04-16 02:28 | 55.60145 | 37.28527 | 688 ft | 13 kts | 46° |
| 2026-04-16 02:28 | 55.60206 | 37.28657 | 692 ft | 14 kts | 71° |
| 2026-04-16 02:28 | 55.60162 | 37.28796 | 694 ft | 13 kts | 135° |
| 2026-04-16 02:29 | 55.60086 | 37.28880 | 692 ft | 13 kts | 165° |
| 2026-04-16 02:29 | 55.59999 | 37.28912 | 690 ft | 13 kts | 176° |
| 2026-04-16 02:29 | 55.59937 | 37.28807 | 692 ft | 15 kts | 248° |
| 2026-04-16 02:29 | 55.59891 | 37.28604 | 691 ft | 21 kts | 248° |
| 2026-04-16 02:30 | 55.59832 | 37.28339 | 693 ft | 26 kts | 248° |
| 2026-04-16 02:30 | 55.59761 | 37.28023 | 691 ft | 29 kts | 248° |
| 2026-04-16 02:30 | 55.59688 | 37.27701 | 690 ft | 28 kts | 248° |
| 2026-04-16 02:30 | 55.59619 | 37.27396 | 687 ft | 26 kts | 248° |
| 2026-04-16 02:31 | 55.59555 | 37.27110 | 691 ft | 22 kts | 248° |
| 2026-04-16 02:31 | 55.59521 | 37.26848 | 687 ft | 22 kts | 265° |
| 2026-04-16 02:31 | 55.59486 | 37.26595 | 688 ft | 21 kts | 246° |
| 2026-04-16 02:31 | 55.59436 | 37.26360 | 693 ft | 20 kts | 250° |
| 2026-04-16 02:32 | 55.59386 | 37.26129 | 688 ft | 20 kts | 248° |
| 2026-04-16 02:32 | 55.59334 | 37.25899 | 688 ft | 21 kts | 248° |
| 2026-04-16 02:32 | 55.59279 | 37.25658 | 693 ft | 21 kts | 247° |
| 2026-04-16 02:32 | 55.59224 | 37.25425 | 693 ft | 20 kts | 248° |
| 2026-04-16 02:33 | 55.59173 | 37.25201 | 687 ft | 20 kts | 248° |
| 2026-04-16 02:33 | 55.59123 | 37.24981 | 687 ft | 19 kts | 248° |
| 2026-04-16 02:33 | 55.59075 | 37.24768 | 687 ft | 18 kts | 248° |
| 2026-04-16 02:33 | 55.59029 | 37.24564 | 686 ft | 18 kts | 248° |
| 2026-04-16 02:34 | 55.58980 | 37.24369 | 686 ft | 17 kts | 242° |
| 2026-04-16 02:34 | 55.58925 | 37.24188 | 691 ft | 16 kts | 242° |
| 2026-04-16 02:34 | 55.58872 | 37.24013 | 694 ft | 15 kts | 243° |
| 2026-04-16 02:34 | 55.58831 | 37.23872 | 690 ft | 11 kts | 243° |
| 2026-04-16 02:35 | 55.58771 | 37.23816 | 691 ft | 9 kts | 164° |
| 2026-04-16 02:35 | 55.58740 | 37.23835 | 690 ft | 5 kts | 160° |
| 2026-04-16 02:35 | 55.58701 | 37.23859 | 691 ft | 7 kts | 160° |
| 2026-04-16 02:35 | 55.58667 | 37.23924 | 691 ft | 8 kts | 104° |
| 2026-04-16 02:36 | 55.58676 | 37.24012 | 687 ft | 7 kts | 68° |
| 2026-04-16 02:36 | 55.58678 | 37.24017 | 687 ft | 0 kts | 68° |
| 2026-04-16 02:36 | 55.58679 | 37.24022 | 688 ft | 3 kts | 68° |
| 2026-04-16 02:36 | 55.58747 | 37.24319 | 690 ft | 64 kts | 68° |
| 2026-04-16 02:37 | 55.59011 | 37.25477 | 688 ft | 134 kts | 68° |
| 2026-04-16 02:37 | 55.59416 | 37.27260 | 774 ft | 179 kts | 68° |
| 2026-04-16 02:37 | 55.59877 | 37.29318 | 1638 ft | 175 kts | 70° |
| 2026-04-16 02:37 | 55.60339 | 37.31304 | 2557 ft | 176 kts | 71° |
| 2026-04-16 02:38 | 55.60828 | 37.33295 | 3417 ft | 177 kts | 70° |
| 2026-04-16 02:38 | 55.61326 | 37.35301 | 4212 ft | 182 kts | 71° |
| 2026-04-16 02:38 | 55.61791 | 37.37514 | 4528 ft | 206 kts | 80° |
| 2026-04-16 02:38 | 55.61761 | 37.40091 | 4937 ft | 215 kts | 107° |
| 2026-04-16 02:39 | 55.61021 | 37.42494 | 5277 ft | 232 kts | 129° |
| 2026-04-16 02:39 | 55.59916 | 37.44632 | 6080 ft | 235 kts | 133° |
| 2026-04-16 02:39 | 55.58777 | 37.46720 | 6675 ft | 235 kts | 133° |
| 2026-04-16 02:39 | 55.57711 | 37.48921 | 6926 ft | 237 kts | 118° |
| 2026-04-16 02:40 | 55.57214 | 37.51725 | 6985 ft | 246 kts | 101° |
| 2026-04-16 02:40 | 55.57009 | 37.54794 | 7615 ft | 254 kts | 98° |
| 2026-04-16 02:40 | 55.56840 | 37.57868 | 8501 ft | 254 kts | 98° |
| 2026-04-16 02:40 | 55.56838 | 37.61015 | 9328 ft | 260 kts | 83° |
| 2026-04-16 02:41 | 55.57461 | 37.64069 | 10127 ft | 270 kts | 66° |
| 2026-04-16 02:41 | 55.58413 | 37.66980 | 10855 ft | 275 kts | 64° |
| 2026-04-16 02:41 | 55.59409 | 37.69917 | 11572 ft | 280 kts | 64° |
| 2026-04-16 02:41 | 55.60405 | 37.72866 | 12329 ft | 284 kts | 65° |
| 2026-04-16 02:42 | 55.61420 | 37.75911 | 13112 ft | 288 kts | 65° |
| 2026-04-16 02:42 | 55.62443 | 37.79009 | 13901 ft | 293 kts | 65° |
| 2026-04-16 02:42 | 55.63474 | 37.82149 | 14626 ft | 297 kts | 65° |
| 2026-04-16 02:42 | 55.64410 | 37.85345 | 15359 ft | 295 kts | 77° |
| 2026-04-16 02:43 | 55.64694 | 37.88885 | 16120 ft | 289 kts | 97° |
| 2026-04-16 02:43 | 55.64361 | 37.92385 | 16868 ft | 290 kts | 105° |
| 2026-04-16 02:43 | 55.63901 | 37.95891 | 17590 ft | 294 kts | 106° |
| 2026-04-16 02:43 | 55.63421 | 37.99445 | 18317 ft | 299 kts | 106° |
| 2026-04-16 02:44 | 55.62943 | 38.03055 | 18991 ft | 303 kts | 105° |
| 2026-04-16 02:44 | 55.62474 | 38.06672 | 19619 ft | 307 kts | 105° |
| 2026-04-16 02:44 | 55.61995 | 38.10391 | 20238 ft | 311 kts | 105° |
| 2026-04-16 02:44 | 55.61497 | 38.14251 | 20458 ft | 330 kts | 105° |
| 2026-04-16 02:45 | 55.60985 | 38.18248 | 20783 ft | 342 kts | 104° |
| 2026-04-16 02:45 | 55.60456 | 38.22409 | 21359 ft | 347 kts | 104° |
| 2026-04-16 02:45 | 55.59927 | 38.26583 | 22007 ft | 350 kts | 104° |
| 2026-04-16 02:45 | 55.59388 | 38.30815 | 22603 ft | 354 kts | 104° |
| 2026-04-16 02:46 | 55.58840 | 38.35093 | 23178 ft | 359 kts | 104° |
| 2026-04-16 02:46 | 55.58280 | 38.39441 | 23735 ft | 364 kts | 104° |
| 2026-04-16 02:46 | 55.58017 | 38.43927 | 24191 ft | 371 kts | 88° |
| 2026-04-16 02:46 | 55.58569 | 38.48405 | 24699 ft | 378 kts | 70° |
| 2026-04-16 02:47 | 55.59799 | 38.52479 | 25240 ft | 382 kts | 61° |
| 2026-04-16 02:47 | 55.61193 | 38.56515 | 25716 ft | 385 kts | 61° |
| 2026-04-16 02:47 | 55.62589 | 38.60589 | 26176 ft | 389 kts | 61° |
| 2026-04-16 02:47 | 55.63974 | 38.64704 | 26757 ft | 388 kts | 62° |
| 2026-04-16 02:48 | 55.65338 | 38.68816 | 27454 ft | 384 kts | 62° |
| 2026-04-16 02:48 | 55.66683 | 38.72896 | 28141 ft | 382 kts | 62° |
| 2026-04-16 02:48 | 55.68000 | 38.76904 | 28721 ft | 381 kts | 62° |
| 2026-04-16 02:48 | 55.69338 | 38.80979 | 29305 ft | 381 kts | 62° |
| 2026-04-16 02:49 | 55.70671 | 38.85036 | 29933 ft | 379 kts | 61° |
| 2026-04-16 02:49 | 55.71994 | 38.89073 | 30504 ft | 377 kts | 61° |
| 2026-04-16 02:49 | 55.73325 | 38.93075 | 31009 ft | 376 kts | 58° |
| 2026-04-16 02:49 | 55.74960 | 38.96644 | 31507 ft | 376 kts | 48° |
| 2026-04-16 02:50 | 55.76779 | 38.99964 | 32024 ft | 374 kts | 47° |
| 2026-04-16 02:50 | 55.78619 | 39.03263 | 32486 ft | 374 kts | 47° |
| 2026-04-16 02:50 | 55.80431 | 39.06580 | 32957 ft | 372 kts | 48° |
| 2026-04-16 02:50 | 55.82212 | 39.09913 | 33441 ft | 371 kts | 48° |
| 2026-04-16 02:51 | 55.83976 | 39.13251 | 33896 ft | 369 kts | 48° |
| 2026-04-16 02:51 | 55.85531 | 39.16867 | 34267 ft | 367 kts | 63° |
| 2026-04-16 02:51 | 55.86690 | 39.20912 | 34524 ft | 369 kts | 65° |
| 2026-04-16 02:51 | 55.87803 | 39.25032 | 34576 ft | 377 kts | 65° |
| 2026-04-16 02:52 | 55.89725 | 39.32178 | 34695 ft | 390 kts | 65° |
| 2026-04-16 02:52 | 55.92155 | 39.41047 | 34825 ft | 405 kts | 65° |
| 2026-04-16 02:53 | 55.94691 | 39.50224 | 34945 ft | 419 kts | 64° |
| 2026-04-16 02:53 | 55.97312 | 39.59716 | 35057 ft | 432 kts | 64° |
| 2026-04-16 02:54 | 55.98628 | 39.64502 | 35180 ft | 436 kts | 65° |
| 2026-04-16 02:54 | 55.99982 | 39.69383 | 35361 ft | 438 kts | 63° |
| 2026-04-16 02:54 | 56.01374 | 39.74217 | 35646 ft | 437 kts | 66° |
| 2026-04-16 02:54 | 56.02417 | 39.79329 | 35933 ft | 436 kts | 76° |
| 2026-04-16 02:55 | 56.03001 | 39.84649 | 36175 ft | 436 kts | 85° |
| 2026-04-16 02:55 | 56.03144 | 39.90068 | 36400 ft | 436 kts | 89° |
| 2026-04-16 02:55 | 56.03196 | 39.95430 | 36641 ft | 437 kts | 89° |
| 2026-04-16 02:55 | 56.03233 | 40.00866 | 36889 ft | 437 kts | 89° |
| 2026-04-16 02:56 | 56.03275 | 40.06320 | 37141 ft | 437 kts | 89° |
| 2026-04-16 02:56 | 56.03326 | 40.11773 | 37233 ft | 441 kts | 89° |
| 2026-04-16 02:56 | 56.03450 | 40.22794 | 37236 ft | 443 kts | 89° |
| 2026-04-16 02:57 | 56.03578 | 40.33684 | 37233 ft | 436 kts | 89° |
| 2026-04-16 02:57 | 56.03696 | 40.44522 | 37247 ft | 435 kts | 89° |
| 2026-04-16 02:58 | 56.03802 | 40.55363 | 37249 ft | 435 kts | 89° |
| 2026-04-16 02:58 | 56.03900 | 40.66126 | 37252 ft | 435 kts | 89° |
| 2026-04-16 02:59 | 56.03988 | 40.76964 | 37254 ft | 436 kts | 89° |
| 2026-04-16 02:59 | 56.04061 | 40.87762 | 37255 ft | 437 kts | 89° |
| 2026-04-16 03:00 | 56.04125 | 40.98663 | 37256 ft | 438 kts | 89° |
| 2026-04-16 03:00 | 56.04181 | 41.09613 | 37260 ft | 440 kts | 89° |
| 2026-04-16 03:01 | 56.04228 | 41.20527 | 37258 ft | 441 kts | 89° |
| 2026-04-16 03:01 | 56.04266 | 41.31515 | 37254 ft | 441 kts | 89° |
| 2026-04-16 03:02 | 56.04293 | 41.42461 | 37263 ft | 441 kts | 89° |
| 2026-04-16 03:02 | 56.04311 | 41.53438 | 37268 ft | 441 kts | 89° |
| 2026-04-16 03:03 | 56.04319 | 41.64364 | 37262 ft | 441 kts | 89° |
| 2026-04-16 03:03 | 56.04317 | 41.75351 | 37263 ft | 440 kts | 89° |
| 2026-04-16 03:04 | 56.04306 | 41.86291 | 37264 ft | 439 kts | 89° |
| 2026-04-16 03:04 | 56.04285 | 41.97167 | 37266 ft | 439 kts | 89° |
| 2026-04-16 03:05 | 56.04255 | 42.08081 | 37269 ft | 438 kts | 89° |
| 2026-04-16 03:05 | 56.04215 | 42.18974 | 37269 ft | 438 kts | 89° |
| 2026-04-16 03:06 | 56.04166 | 42.29878 | 37269 ft | 437 kts | 89° |
| 2026-04-16 03:07 | 56.04076 | 42.46199 | 37274 ft | 437 kts | 89° |
| 2026-04-16 03:07 | 56.03997 | 42.57017 | 37279 ft | 437 kts | 90° |
| 2026-04-16 03:08 | 56.03864 | 42.67911 | 37274 ft | 438 kts | 90° |
| 2026-04-16 03:08 | 56.03715 | 42.78829 | 37274 ft | 438 kts | 90° |
| 2026-04-16 03:09 | 56.03564 | 42.89664 | 37277 ft | 439 kts | 90° |
| 2026-04-16 03:09 | 56.03404 | 43.00606 | 37278 ft | 440 kts | 90° |
| 2026-04-16 03:10 | 56.03234 | 43.11562 | 37283 ft | 441 kts | 90° |
| 2026-04-16 03:10 | 56.03056 | 43.22551 | 37279 ft | 441 kts | 90° |
| 2026-04-16 03:11 | 56.02886 | 43.33463 | 37282 ft | 441 kts | 88° |
| 2026-04-16 03:11 | 56.03490 | 43.44375 | 37288 ft | 440 kts | 81° |
| 2026-04-16 03:12 | 56.04282 | 43.55187 | 37291 ft | 440 kts | 81° |
| 2026-04-16 03:12 | 56.05048 | 43.66067 | 37224 ft | 442 kts | 82° |
| 2026-04-16 03:12 | 56.05421 | 43.71577 | 36709 ft | 445 kts | 82° |
| 2026-04-16 03:13 | 56.05784 | 43.77059 | 36129 ft | 443 kts | 82° |
| 2026-04-16 03:13 | 56.06142 | 43.82534 | 35486 ft | 442 kts | 82° |
| 2026-04-16 03:13 | 56.06496 | 43.87989 | 34840 ft | 442 kts | 82° |
| 2026-04-16 03:13 | 56.06848 | 43.93451 | 34367 ft | 437 kts | 82° |
| 2026-04-16 03:14 | 56.07190 | 43.98794 | 33833 ft | 433 kts | 82° |
| 2026-04-16 03:14 | 56.07530 | 44.04135 | 33335 ft | 429 kts | 82° |
| 2026-04-16 03:14 | 56.07864 | 44.09423 | 32866 ft | 424 kts | 82° |
| 2026-04-16 03:14 | 56.08192 | 44.14643 | 32417 ft | 419 kts | 82° |
| 2026-04-16 03:15 | 56.08511 | 44.19743 | 31961 ft | 415 kts | 82° |
| 2026-04-16 03:15 | 56.08829 | 44.24871 | 31509 ft | 412 kts | 82° |
| 2026-04-16 03:15 | 56.09143 | 44.29963 | 31065 ft | 408 kts | 82° |
| 2026-04-16 03:15 | 56.09453 | 44.35019 | 30641 ft | 405 kts | 82° |
| 2026-04-16 03:16 | 56.09753 | 44.39965 | 30169 ft | 403 kts | 82° |
| 2026-04-16 03:16 | 56.10054 | 44.44949 | 29674 ft | 399 kts | 82° |
| 2026-04-16 03:16 | 56.10351 | 44.49894 | 29226 ft | 396 kts | 82° |
| 2026-04-16 03:16 | 56.10644 | 44.54793 | 28768 ft | 393 kts | 82° |
| 2026-04-16 03:17 | 56.10928 | 44.59593 | 28318 ft | 390 kts | 82° |
| 2026-04-16 03:17 | 56.11209 | 44.64406 | 27878 ft | 387 kts | 83° |
| 2026-04-16 03:17 | 56.11298 | 44.69219 | 27461 ft | 385 kts | 90° |
| 2026-04-16 03:17 | 56.11202 | 44.73991 | 27020 ft | 383 kts | 91° |
| 2026-04-16 03:18 | 56.11071 | 44.78746 | 26581 ft | 381 kts | 91° |
| 2026-04-16 03:18 | 56.10943 | 44.83488 | 26142 ft | 379 kts | 91° |
| 2026-04-16 03:18 | 56.10831 | 44.88152 | 25711 ft | 377 kts | 91° |
| 2026-04-16 03:18 | 56.10730 | 44.92843 | 25282 ft | 376 kts | 91° |
| 2026-04-16 03:19 | 56.10630 | 44.97521 | 24854 ft | 374 kts | 91° |
| 2026-04-16 03:19 | 56.10530 | 45.02184 | 24425 ft | 373 kts | 91° |
| 2026-04-16 03:19 | 56.10424 | 45.06839 | 23991 ft | 372 kts | 91° |
| 2026-04-16 03:19 | 56.10314 | 45.11462 | 23502 ft | 371 kts | 91° |
| 2026-04-16 03:20 | 56.10205 | 45.16013 | 23030 ft | 370 kts | 91° |
| 2026-04-16 03:20 | 56.10096 | 45.20595 | 22595 ft | 367 kts | 91° |
| 2026-04-16 03:20 | 56.09988 | 45.25160 | 22163 ft | 365 kts | 92° |
| 2026-04-16 03:20 | 56.09879 | 45.29699 | 21732 ft | 363 kts | 92° |
| 2026-04-16 03:21 | 56.09770 | 45.34204 | 21307 ft | 361 kts | 92° |
| 2026-04-16 03:21 | 56.09659 | 45.38697 | 20883 ft | 359 kts | 92° |
| 2026-04-16 03:21 | 56.09548 | 45.43165 | 20463 ft | 358 kts | 92° |
| 2026-04-16 03:21 | 56.09435 | 45.47603 | 20048 ft | 356 kts | 92° |
| 2026-04-16 03:22 | 56.09323 | 45.51974 | 19639 ft | 355 kts | 92° |
| 2026-04-16 03:22 | 56.09208 | 45.56390 | 19230 ft | 354 kts | 92° |
| 2026-04-16 03:22 | 56.09092 | 45.60779 | 18817 ft | 353 kts | 92° |
| 2026-04-16 03:22 | 56.08974 | 45.65167 | 18374 ft | 352 kts | 92° |
| 2026-04-16 03:23 | 56.08855 | 45.69547 | 17906 ft | 351 kts | 92° |
| 2026-04-16 03:23 | 56.08734 | 45.73922 | 17472 ft | 349 kts | 92° |
| 2026-04-16 03:23 | 56.08615 | 45.78217 | 17053 ft | 347 kts | 92° |
| 2026-04-16 03:23 | 56.08492 | 45.82542 | 16631 ft | 346 kts | 92° |
| 2026-04-16 03:24 | 56.08370 | 45.86824 | 16215 ft | 344 kts | 92° |
| 2026-04-16 03:24 | 56.08246 | 45.91114 | 15800 ft | 343 kts | 93° |
| 2026-04-16 03:24 | 56.08122 | 45.95364 | 15395 ft | 342 kts | 93° |
| 2026-04-16 03:24 | 56.07998 | 45.99549 | 15021 ft | 340 kts | 93° |
| 2026-04-16 03:25 | 56.07871 | 46.03775 | 14589 ft | 340 kts | 93° |
| 2026-04-16 03:25 | 56.07743 | 46.08003 | 14173 ft | 339 kts | 93° |
| 2026-04-16 03:25 | 56.07614 | 46.12211 | 13718 ft | 338 kts | 93° |
| 2026-04-16 03:25 | 56.07484 | 46.16418 | 13272 ft | 337 kts | 93° |
| 2026-04-16 03:26 | 56.07353 | 46.20596 | 12854 ft | 336 kts | 93° |
| 2026-04-16 03:26 | 56.07221 | 46.24775 | 12453 ft | 334 kts | 93° |
| 2026-04-16 03:26 | 56.07088 | 46.28931 | 12017 ft | 333 kts | 93° |
| 2026-04-16 03:26 | 56.06956 | 46.33018 | 11607 ft | 332 kts | 93° |
| 2026-04-16 03:27 | 56.06822 | 46.37142 | 11203 ft | 331 kts | 93° |
| 2026-04-16 03:27 | 56.06688 | 46.41251 | 10797 ft | 330 kts | 93° |
| 2026-04-16 03:27 | 56.06553 | 46.45295 | 10642 ft | 321 kts | 93° |
| 2026-04-16 03:27 | 56.06420 | 46.49252 | 10488 ft | 313 kts | 93° |
| 2026-04-16 03:28 | 56.06315 | 46.53053 | 10366 ft | 305 kts | 91° |
| 2026-04-16 03:28 | 56.06339 | 46.56821 | 10271 ft | 297 kts | 88° |
| 2026-04-16 03:28 | 56.06407 | 46.60450 | 10243 ft | 286 kts | 88° |
| 2026-04-16 03:28 | 56.06460 | 46.63978 | 10067 ft | 279 kts | 89° |
| 2026-04-16 03:29 | 56.06507 | 46.67410 | 9897 ft | 272 kts | 89° |
| 2026-04-16 03:29 | 56.06550 | 46.70781 | 9687 ft | 269 kts | 89° |
| 2026-04-16 03:29 | 56.06591 | 46.74081 | 9435 ft | 267 kts | 89° |
| 2026-04-16 03:29 | 56.06632 | 46.77402 | 9168 ft | 266 kts | 89° |
| 2026-04-16 03:30 | 56.06674 | 46.80698 | 8916 ft | 264 kts | 89° |
| 2026-04-16 03:30 | 56.06716 | 46.83981 | 8662 ft | 263 kts | 89° |
| 2026-04-16 03:30 | 56.06758 | 46.87249 | 8395 ft | 261 kts | 89° |
| 2026-04-16 03:30 | 56.06800 | 46.90491 | 8159 ft | 258 kts | 89° |
| 2026-04-16 03:31 | 56.06841 | 46.93658 | 7941 ft | 256 kts | 89° |
| 2026-04-16 03:31 | 56.06882 | 46.96839 | 7711 ft | 254 kts | 89° |
| 2026-04-16 03:31 | 56.06924 | 46.99984 | 7489 ft | 251 kts | 89° |
| 2026-04-16 03:31 | 56.06965 | 47.03100 | 7262 ft | 249 kts | 89° |
| 2026-04-16 03:32 | 56.07005 | 47.06182 | 7050 ft | 246 kts | 89° |
| 2026-04-16 03:32 | 56.07044 | 47.09228 | 6820 ft | 244 kts | 89° |
| 2026-04-16 03:34 | 56.06658 | 47.29529 | 5213 ft | 231 kts | 123° |
| 2026-04-16 03:34 | 56.05494 | 47.31494 | 4976 ft | 232 kts | 148° |
| 2026-04-16 03:34 | 56.03958 | 47.32388 | 4724 ft | 235 kts | 172° |
| 2026-04-16 03:34 | 56.02327 | 47.32038 | 4499 ft | 240 kts | 197° |
| 2026-04-16 03:35 | 56.00904 | 47.30480 | 4349 ft | 242 kts | 221° |
| 2026-04-16 03:35 | 55.99971 | 47.28017 | 4236 ft | 239 kts | 246° |
| 2026-04-16 03:35 | 55.99451 | 47.25261 | 4127 ft | 236 kts | 251° |
| 2026-04-16 03:35 | 55.98978 | 47.22462 | 3978 ft | 234 kts | 252° |
| 2026-04-16 03:36 | 55.98513 | 47.19673 | 3791 ft | 233 kts | 252° |
| 2026-04-16 03:36 | 55.98061 | 47.16940 | 3634 ft | 224 kts | 252° |
| 2026-04-16 03:36 | 55.97633 | 47.14344 | 3441 ft | 216 kts | 252° |
| 2026-04-16 03:36 | 55.97217 | 47.11800 | 3337 ft | 210 kts | 252° |
| 2026-04-16 03:37 | 55.96814 | 47.09309 | 3165 ft | 205 kts | 252° |
| 2026-04-16 03:37 | 55.96425 | 47.06905 | 3013 ft | 202 kts | 252° |
| 2026-04-16 03:37 | 55.96171 | 47.04442 | 2898 ft | 203 kts | 271° |
| 2026-04-16 03:37 | 55.96549 | 47.02050 | 2732 ft | 200 kts | 303° |
| 2026-04-16 03:38 | 55.97511 | 47.00334 | 2647 ft | 196 kts | 334° |
| 2026-04-16 03:38 | 55.98794 | 46.99619 | 2521 ft | 190 kts | 354° |
| 2026-04-16 03:38 | 56.00051 | 46.99225 | 2442 ft | 181 kts | 358° |
| 2026-04-16 03:38 | 56.01224 | 46.99469 | 2406 ft | 160 kts | 24° |
| 2026-04-16 03:39 | 56.02177 | 47.00392 | 2381 ft | 155 kts | 58° |
| 2026-04-16 03:39 | 56.02652 | 47.02093 | 2404 ft | 155 kts | 67° |
| 2026-04-16 03:39 | 56.03163 | 47.03785 | 2396 ft | 150 kts | 69° |
| 2026-04-16 03:39 | 56.03593 | 47.05431 | 2400 ft | 145 kts | 71° |
| 2026-04-16 03:40 | 56.03957 | 47.07055 | 2405 ft | 136 kts | 74° |
| 2026-04-16 03:40 | 56.04270 | 47.08650 | 2416 ft | 139 kts | 75° |
| 2026-04-16 03:40 | 56.04578 | 47.10297 | 2391 ft | 139 kts | 76° |
| 2026-04-16 03:40 | 56.04876 | 47.11926 | 2352 ft | 139 kts | 76° |
| 2026-04-16 03:41 | 56.05176 | 47.13576 | 2234 ft | 138 kts | 76° |
| 2026-04-16 03:41 | 56.05470 | 47.15196 | 2207 ft | 138 kts | 76° |
| 2026-04-16 03:41 | 56.05766 | 47.16825 | 2193 ft | 138 kts | 76° |
| 2026-04-16 03:41 | 56.06056 | 47.18427 | 2177 ft | 131 kts | 77° |
| 2026-04-16 03:42 | 56.06344 | 47.20024 | 2126 ft | 139 kts | 76° |
| 2026-04-16 03:42 | 56.06543 | 47.21117 | 2019 ft | 139 kts | 76° |
| 2026-04-16 03:42 | 56.06841 | 47.22763 | 1804 ft | 138 kts | 77° |
| 2026-04-16 03:42 | 56.07190 | 47.24973 | 1600 ft | 139 kts | 76° |
| 2026-04-16 03:43 | 56.07526 | 47.26630 | 1399 ft | 143 kts | 71° |
| 2026-04-16 03:43 | 56.07752 | 47.27746 | 1245 ft | 144 kts | 73° |
| 2026-04-16 03:43 | 56.08057 | 47.29466 | 1036 ft | 145 kts | 73° |
| 2026-04-16 03:43 | 56.08371 | 47.31196 | 802 ft | 147 kts | 71° |
| 2026-04-16 03:44 | 56.08693 | 47.32922 | 628 ft | 145 kts | 72° |
| 2026-04-16 03:44 | 56.08994 | 47.34553 | 571 ft | 117 kts | 71° |
| 2026-04-16 03:44 | 56.09189 | 47.35597 | 564 ft | 73 kts | 72° |
| 2026-04-16 03:44 | 56.09299 | 47.36188 | 564 ft | 27 kts | 71° |
| 2026-04-16 03:45 | 56.09328 | 47.36375 | 562 ft | 14 kts | 78° |
| 2026-04-16 03:45 | 56.09334 | 47.36518 | 544 ft | 11 kts | 110° |
| 2026-04-16 03:45 | 56.09337 | 47.36605 | 539 ft | 5 kts | 34° |
| 2026-04-16 03:45 | 56.09367 | 47.36594 | 538 ft | 5 kts | 319° |
| 2026-04-16 03:46 | 56.09370 | 47.36539 | 542 ft | 5 kts | 251° |
| 2026-04-16 03:46 | 56.09356 | 47.36467 | 547 ft | 7 kts | 249° |
| 2026-04-16 03:46 | 56.09337 | 47.36375 | 555 ft | 9 kts | 249° |
| 2026-04-16 03:46 | 56.09303 | 47.36211 | 556 ft | 19 kts | 249° |
| 2026-04-16 03:47 | 56.09265 | 47.36004 | 559 ft | 4 kts | 253° |
| 2026-04-16 03:47 | 56.09257 | 47.35963 | 562 ft | 3 kts | 251° |
| 2026-04-16 03:47 | 56.09248 | 47.35913 | 563 ft | 5 kts | 251° |
| 2026-04-16 03:47 | 56.09236 | 47.35852 | 563 ft | 5 kts | 251° |
| 2026-04-16 03:48 | 56.09224 | 47.35789 | 566 ft | 5 kts | 251° |
| 2026-04-16 03:48 | 56.09213 | 47.35727 | 565 ft | 5 kts | 251° |
| 2026-04-16 03:48 | 56.09201 | 47.35666 | 564 ft | 5 kts | 251° |
| 2026-04-16 03:48 | 56.09190 | 47.35603 | 563 ft | 6 kts | 251° |
| 2026-04-16 03:49 | 56.09176 | 47.35528 | 561 ft | 7 kts | 251° |
| 2026-04-16 03:49 | 56.09160 | 47.35441 | 564 ft | 7 kts | 251° |
| 2026-04-16 03:49 | 56.09144 | 47.35357 | 567 ft | 7 kts | 251° |
| 2026-04-16 03:49 | 56.09125 | 47.35259 | 563 ft | 10 kts | 251° |
| 2026-04-16 03:50 | 56.09097 | 47.35113 | 566 ft | 14 kts | 251° |
| 2026-04-16 03:50 | 56.09062 | 47.34933 | 568 ft | 17 kts | 251° |
| 2026-04-16 03:50 | 56.09021 | 47.34714 | 566 ft | 20 kts | 252° |
| 2026-04-16 03:50 | 56.08980 | 47.34479 | 569 ft | 20 kts | 252° |
| 2026-04-16 03:51 | 56.08939 | 47.34250 | 568 ft | 19 kts | 252° |
| 2026-04-16 03:51 | 56.08900 | 47.34027 | 569 ft | 18 kts | 252° |
| 2026-04-16 03:51 | 56.08862 | 47.33812 | 567 ft | 18 kts | 252° |
| 2026-04-16 03:51 | 56.08825 | 47.33604 | 566 ft | 17 kts | 252° |
| 2026-04-16 03:52 | 56.08790 | 47.33404 | 571 ft | 17 kts | 253° |
| 2026-04-16 03:52 | 56.08754 | 47.33214 | 569 ft | 16 kts | 249° |
| 2026-04-16 03:52 | 56.08717 | 47.33043 | 570 ft | 11 kts | 249° |
| 2026-04-16 03:52 | 56.08681 | 47.32917 | 568 ft | 11 kts | 236° |
| 2026-04-16 03:53 | 56.08633 | 47.32805 | 571 ft | 11 kts | 232° |
| 2026-04-16 03:53 | 56.08584 | 47.32682 | 566 ft | 12 kts | 234° |
| 2026-04-16 03:53 | 56.08535 | 47.32559 | 570 ft | 12 kts | 234° |
| 2026-04-16 03:53 | 56.08515 | 47.32508 | 563 ft | 12 kts | 234° |
| 2026-04-16 04:03 | 56.08489 | 47.32444 | 571 ft | 12 kts | 233° |
| 2026-04-16 04:04 | 56.08442 | 47.32330 | 566 ft | 11 kts | 237° |
| 2026-04-16 04:04 | 56.08394 | 47.32222 | 565 ft | 11 kts | 219° |
| 2026-04-16 04:04 | 56.08347 | 47.32169 | 564 ft | 1 kts | 208° |
| 2026-04-16 04:04 | 56.08339 | 47.32158 | 563 ft | 3 kts | 219° |
| 2026-04-16 04:05 | 56.08330 | 47.32120 | 567 ft | 4 kts | 259° |
| 2026-04-16 04:05 | 56.08327 | 47.32094 | 565 ft | 0 kts | 261° |
| 2026-04-16 04:05 | 56.08327 | 47.32090 | 565 ft | 0 kts | 261° |